Time;durP1;ratioP1;P1;durP2;ratioP2;P2;SDS_P1;SDS_P2;PMS_P1;PMS_P2;Temp;Humidity;BMP_temperature;BMP_pressure;BME280_temperature;BME280_humidity;BME280_pressure;Samples;Min_cycle;Max_cycle;Signal;HPM_P1;HPM_P2
2022/05/17 00:01:23;;;;;;;;;3.25;3.25;;;;;23.06;47.92;101497.88;5123050;27;45314;-67
2022/05/17 00:03:49;;;;;;;;;4.00;4.00;;;;;22.99;48.00;101485.69;5122360;27;45380;-67
2022/05/17 00:06:14;;;;;;;;;5.50;4.00;;;;;23.00;48.23;101486.53;5119328;27;46000;-67
2022/05/17 00:08:40;;;;;;;;;5.25;5.25;;;;;22.92;47.92;101482.53;5121986;27;45281;-67
2022/05/17 00:11:06;;;;;;;;;2.50;2.50;;;;;22.93;48.42;101486.13;5122887;27;46015;-67
2022/05/17 00:13:32;;;;;;;;;4.00;4.00;;;;;22.91;48.38;101488.09;5115349;27;45437;-67
2022/05/17 00:15:59;;;;;;;;;4.25;4.25;;;;;22.84;48.36;101482.22;5121705;27;45376;-68
2022/05/17 00:18:25;;;;;;;;;4.50;3.50;;;;;22.85;48.36;101478.50;5125178;27;45250;-67
2022/05/17 00:20:51;;;;;;;;;4.00;4.00;;;;;22.87;48.27;101476.56;5122603;27;46508;-67
2022/05/17 00:23:17;;;;;;;;;4.25;4.25;;;;;22.94;48.56;101490.59;5138671;27;45783;-67
2022/05/17 00:25:45;;;;;;;;;4.00;4.00;;;;;22.88;48.72;101477.41;5119346;27;45415;-67
2022/05/17 00:28:11;;;;;;;;;4.50;3.50;;;;;22.78;48.66;101474.50;5122728;27;45387;-67
2022/05/17 00:30:36;;;;;;;;;5.00;4.00;;;;;22.88;48.77;101477.41;5121168;27;46983;-67
2022/05/17 00:33:02;;;;;;;;;5.00;5.00;;;;;22.88;48.81;101491.03;5122572;27;45222;-67
2022/05/17 00:35:28;;;;;;;;;4.75;4.75;;;;;22.74;49.04;101467.53;5121284;27;45562;-67
2022/05/17 00:37:53;;;;;;;;;5.25;4.00;;;;;22.82;48.92;101486.00;5117162;27;45403;-67
2022/05/17 00:40:19;;;;;;;;;4.00;4.00;;;;;22.69;48.90;101461.56;5114316;27;46269;-67
2022/05/17 00:42:44;;;;;;;;;4.25;4.25;;;;;22.62;49.33;101449.34;5122148;27;45393;-67
2022/05/17 00:45:11;;;;;;;;;4.50;4.50;;;;;22.69;48.82;101462.41;5119669;27;45403;-67
2022/05/17 00:47:43;;;;;;;;;2.75;2.75;;;;;22.71;48.93;101471.34;5121270;27;45451;-67
2022/05/17 00:50:22;;;;;;;;;4.75;4.00;;;;;22.73;49.26;101463.94;5122018;27;46715;-67
2022/05/17 00:52:52;;;;;;;;;3.00;3.00;;;;;22.78;48.88;101474.50;5108810;27;45349;-67
2022/05/17 00:55:25;;;;;;;;;5.25;5.25;;;;;22.79;49.08;101478.97;5120989;27;46425;-67
2022/05/17 00:57:56;;;;;;;;;5.50;5.50;;;;;22.71;49.12;101468.63;5122224;27;45251;-67
2022/05/17 01:00:24;;;;;;;;;5.00;5.00;;;;;22.67;48.91;101461.66;5122058;27;45597;-67
2022/05/17 01:02:54;;;;;;;;;5.25;4.75;;;;;22.69;49.37;101469.72;5121990;27;45472;-67
2022/05/17 01:05:23;;;;;;;;;5.25;4.75;;;;;22.70;49.41;101480.50;5120608;27;45304;-67
2022/05/17 01:07:52;;;;;;;;;5.00;5.00;;;;;22.64;49.47;101463.75;5121907;27;45436;-67
2022/05/17 01:10:19;;;;;;;;;4.25;4.25;;;;;22.68;49.30;101468.84;5137571;27;47744;-67
2022/05/17 01:14:57;;;;;;;;;5.00;5.00;;;;;22.55;49.42;101448.94;5130972;27;45474;-67
2022/05/17 01:15:30;;;;;;;;;3.75;3.50;;;;;22.55;49.58;101457.09;5111471;27;45469;-67
2022/05/17 01:17:55;;;;;;;;;5.00;5.00;;;;;22.55;49.25;101447.09;5121747;27;45362;-67
2022/05/17 01:20:21;;;;;;;;;5.00;5.00;;;;;22.58;49.51;101460.47;5120214;27;47678;-67
2022/05/17 01:22:46;;;;;;;;;3.50;3.50;;;;;22.43;49.44;101433.50;5121722;27;45339;-67
2022/05/17 01:25:12;;;;;;;;;6.00;5.00;;;;;22.53;49.84;101449.03;5120609;27;45478;-68
2022/05/17 01:27:47;;;;;;;;;6.25;6.25;;;;;22.60;49.49;101467.66;5121487;27;45253;-67
2022/05/17 01:30:26;;;;;;;;;4.00;4.00;;;;;22.56;49.78;101464.28;5121715;27;45542;-67
2022/05/17 01:32:52;;;;;;;;;5.00;5.00;;;;;22.41;49.53;101441.75;5120259;27;45405;-67
2022/05/17 01:35:18;;;;;;;;;3.75;3.00;;;;;22.47;49.81;101459.47;5136152;27;45511;-67
2022/05/17 01:37:44;;;;;;;;;4.00;4.00;;;;;22.53;49.85;101465.34;5117216;27;45331;-67
2022/05/17 01:40:10;;;;;;;;;3.00;3.00;;;;;22.49;49.61;101461.13;5110587;27;48045;-67
2022/05/17 01:42:36;;;;;;;;;3.00;3.00;;;;;22.50;49.41;101465.59;5137194;27;45335;-67
2022/05/17 01:45:03;;;;;;;;;4.25;4.00;;;;;22.52;49.63;101466.34;5119127;27;45494;-67
2022/05/17 01:47:29;;;;;;;;;4.00;4.00;;;;;22.54;49.58;101460.81;5120753;27;45255;-67
2022/05/17 01:49:55;;;;;;;;;7.50;5.25;;;;;22.55;50.16;101460.69;5121132;27;46354;-67
2022/05/17 01:52:20;;;;;;;;;6.25;6.25;;;;;22.56;49.69;101461.56;5121361;27;45381;-67
2022/05/17 01:54:46;;;;;;;;;9.00;6.25;;;;;22.55;49.66;101460.69;5120399;27;45404;-67
2022/05/17 01:57:11;;;;;;;;;7.75;6.00;;;;;22.54;49.95;101458.09;5119856;27;45215;-67
2022/05/17 01:59:37;;;;;;;;;6.75;5.00;;;;;22.50;50.37;101452.00;5120720;27;45283;-67
2022/05/17 02:02:03;;;;;;;;;5.25;5.25;;;;;22.48;50.03;101453.94;5119944;27;45305;-67
2022/05/17 02:04:28;;;;;;;;;4.75;4.00;;;;;22.41;50.25;101443.63;5111301;27;45292;-67
2022/05/17 02:06:53;;;;;;;;;5.25;5.25;;;;;22.43;50.17;101447.09;5137052;27;45533;-67
2022/05/17 02:09:19;;;;;;;;;5.50;5.50;;;;;22.49;50.37;101488.34;5121041;27;45423;-67
2022/05/17 02:11:44;;;;;;;;;5.25;5.25;;;;;22.35;50.82;101474.81;5120987;27;45357;-67
2022/05/17 02:14:10;;;;;;;;;7.25;7.25;;;;;22.30;50.45;101455.25;5111813;27;45478;-67
2022/05/17 02:16:40;;;;;;;;;3.75;3.75;;;;;22.37;50.93;101484.63;5120385;27;45586;-67
2022/05/17 02:19:08;;;;;;;;;5.75;5.75;;;;;22.24;50.62;101455.66;5120609;27;46064;-67
2022/05/17 02:21:35;;;;;;;;;6.00;6.00;;;;;22.30;51.06;101474.28;5120825;27;45532;-67
2022/05/17 02:24:01;;;;;;;;;4.75;4.75;;;;;22.34;50.97;101484.00;5119949;27;45440;-67
2022/05/17 02:26:27;;;;;;;;;7.00;6.00;;;;;22.21;50.91;101459.47;5120481;27;45456;-67
2022/05/17 02:28:52;;;;;;;;;7.00;7.00;;;;;22.16;51.26;101472.50;5119291;27;47343;-67
2022/05/17 02:31:19;;;;;;;;;6.25;5.00;;;;;22.23;50.77;101495.56;5136774;27;45256;-67
2022/05/17 02:33:45;;;;;;;;;4.00;4.00;;;;;22.13;50.58;101470.88;5106517;27;45190;-67
2022/05/17 02:36:11;;;;;;;;;6.00;4.75;;;;;22.20;50.64;101474.03;5118911;27;45537;-67
2022/05/17 02:38:36;;;;;;;;;3.00;2.00;;;;;22.17;50.61;101482.41;5108993;27;45400;-67
2022/05/17 02:41:02;;;;;;;;;3.50;2.75;;;;;22.22;50.76;101496.56;5118695;27;45331;-67
2022/05/17 02:43:27;;;;;;;;;7.00;5.25;;;;;22.14;50.63;101480.78;5134815;27;45636;-67
2022/05/17 02:45:53;;;;;;;;;4.50;4.50;;;;;22.20;51.09;101493.06;5120277;27;45267;-67
2022/05/17 02:48:19;;;;;;;;;5.00;5.00;;;;;22.18;50.73;101493.16;5120507;27;45305;-67
2022/05/17 02:50:44;;;;;;;;;5.00;5.00;;;;;22.18;51.13;101500.47;5120249;27;45488;-67
2022/05/17 02:53:09;;;;;;;;;5.00;5.00;;;;;22.08;51.09;101483.03;5119515;27;45246;-67
2022/05/17 02:55:35;;;;;;;;;4.00;4.00;;;;;22.12;50.77;101485.44;5120530;27;45473;-67
2022/05/17 02:58:00;;;;;;;;;4.75;4.75;;;;;22.07;50.82;101490.34;5136422;27;47208;-67
2022/05/17 03:00:26;;;;;;;;;5.00;5.00;;;;;21.98;50.76;101477.38;5120379;27;45383;-67
2022/05/17 03:02:52;;;;;;;;;6.25;5.25;;;;;22.01;51.24;101482.59;5119168;27;45320;-67
2022/05/17 03:05:18;;;;;;;;;7.25;5.75;;;;;21.91;50.67;101465.19;5136002;27;45425;-67
2022/05/17 03:07:44;;;;;;;;;5.00;5.00;;;;;22.06;50.98;101494.03;5120344;27;46250;-67
2022/05/17 03:10:11;;;;;;;;;6.25;5.00;;;;;22.07;51.34;101487.63;5119998;27;45292;-67
2022/05/17 03:12:37;;;;;;;;;6.50;6.50;;;;;21.89;50.65;101468.00;5117890;27;45401;-67
2022/05/17 03:15:04;;;;;;;;;4.50;4.50;;;;;22.01;50.86;101478.03;5122610;27;45178;-67
2022/05/17 03:17:29;;;;;;;;;3.75;3.75;;;;;22.00;50.94;101475.41;5123939;27;47439;-67
2022/05/17 03:19:55;;;;;;;;;3.50;3.50;;;;;22.00;50.96;101468.16;5139491;27;45554;-67
2022/05/17 03:22:21;;;;;;;;;3.75;3.75;;;;;22.03;50.86;101475.19;5122617;27;45317;-67
2022/05/17 03:24:47;;;;;;;;;5.25;4.25;;;;;21.98;51.20;101466.50;5123542;27;45321;-67
2022/05/17 03:27:17;;;;;;;;;5.00;5.00;;;;;21.99;51.01;101476.41;5122200;27;47186;-67
2022/05/17 03:29:42;;;;;;;;;4.75;4.75;;;;;22.08;50.75;101483.03;5110070;27;45514;-67
2022/05/17 03:32:08;;;;;;;;;4.75;3.00;;;;;22.03;50.67;101480.63;5123386;27;45277;-67
2022/05/17 03:34:33;;;;;;;;;3.75;3.25;;;;;21.96;51.11;101480.19;5123471;27;45159;-67
2022/05/17 03:36:59;;;;;;;;;5.75;5.75;;;;;21.77;50.65;101455.28;5123341;27;45403;-67
2022/05/17 03:39:24;;;;;;;;;4.50;4.50;;;;;21.94;50.55;101487.59;5108771;27;45442;-67
2022/05/17 03:41:49;;;;;;;;;3.75;3.75;;;;;21.89;50.78;101472.59;5123784;27;45349;-67
2022/05/17 03:44:17;;;;;;;;;5.00;3.75;;;;;21.91;50.99;101476.91;5122773;27;45657;-67
2022/05/17 03:46:42;;;;;;;;;4.00;4.00;;;;;21.93;50.76;101480.41;5123298;27;46499;-67
2022/05/17 03:49:08;;;;;;;;;4.00;4.00;;;;;21.93;50.96;101477.69;5120613;27;45420;-67
2022/05/17 03:51:33;;;;;;;;;4.50;4.50;;;;;21.92;51.31;101477.78;5123318;27;45849;-67
2022/05/17 03:53:59;;;;;;;;;4.25;4.25;;;;;21.89;51.13;101480.75;5122903;27;45560;-67
2022/05/17 03:56:24;;;;;;;;;4.00;4.00;;;;;21.86;51.40;101478.22;5139203;27;47158;-67
2022/05/17 03:58:49;;;;;;;;;4.25;4.25;;;;;21.86;50.75;101476.38;5120196;27;45428;-67
2022/05/17 04:01:15;;;;;;;;;4.75;4.00;;;;;21.89;51.22;101483.47;5122598;27;45316;-67
2022/05/17 04:03:41;;;;;;;;;5.00;5.00;;;;;21.89;50.77;101480.75;5122255;27;45431;-67
2022/05/17 04:06:06;;;;;;;;;4.75;4.00;;;;;21.69;51.13;101454.94;5123117;27;46485;-67
2022/05/17 04:08:32;;;;;;;;;5.00;5.00;;;;;21.83;51.44;101479.28;5121765;27;45159;-67
2022/05/17 04:10:58;;;;;;;;;4.50;4.50;;;;;21.89;51.15;101487.03;5123179;27;45308;-67
2022/05/17 04:13:29;;;;;;;;;3.25;3.25;;;;;21.89;51.82;101484.31;5116029;27;45409;-67
2022/05/17 04:15:55;;;;;;;;;4.75;4.50;;;;;21.90;51.08;101494.22;5122926;27;46667;-67
2022/05/17 04:18:21;;;;;;;;;2.25;2.25;;;;;21.67;51.28;101451.41;5137652;27;45339;-67
2022/05/17 04:20:46;;;;;;;;;7.25;5.25;;;;;21.88;51.82;101492.56;5121466;27;45305;-67
2022/05/17 04:23:11;;;;;;;;;5.50;4.75;;;;;21.83;52.09;101491.06;5122497;27;45526;-67
2022/05/17 04:25:37;;;;;;;;;9.50;7.00;;;;;21.86;51.27;101489.97;5138539;27;48180;-67
2022/05/17 04:28:02;;;;;;;;;4.00;3.00;;;;;21.83;51.48;101488.34;5121662;27;45350;-67
2022/05/17 04:30:28;;;;;;;;;9.00;6.50;;;;;21.79;51.63;101481.34;5122658;27;45499;-67
2022/05/17 04:32:54;;;;;;;;;6.00;6.00;;;;;21.78;51.89;101482.31;5138349;27;45819;-67
2022/05/17 04:35:19;;;;;;;;;4.75;4.75;;;;;21.78;51.56;101479.59;5122284;27;46100;-67
2022/05/17 04:37:45;;;;;;;;;6.00;6.00;;;;;21.60;51.84;101453.69;5133093;27;45406;-67
2022/05/17 04:40:13;;;;;;;;;7.25;6.50;;;;;21.87;51.53;101502.59;5112940;27;45312;-67
2022/05/17 04:42:39;;;;;;;;;7.25;6.75;;;;;21.78;51.71;101493.19;5120140;27;45447;-67
2022/05/17 04:45:06;;;;;;;;;6.00;6.00;;;;;21.82;52.33;101492.00;5122112;27;46248;-67
2022/05/17 04:47:32;;;;;;;;;5.50;5.50;;;;;21.65;52.05;101471.44;5119790;27;45404;-67
2022/05/17 04:49:57;;;;;;;;;7.00;5.50;;;;;21.74;51.99;101491.66;5122131;27;45359;-67
2022/05/17 04:52:24;;;;;;;;;7.25;6.25;;;;;21.62;51.97;101482.50;5121928;27;45392;-67
2022/05/17 04:54:51;;;;;;;;;5.50;5.50;;;;;21.64;52.06;101480.53;5122199;27;46200;-67
2022/05/17 04:57:17;;;;;;;;;10.50;7.50;;;;;21.74;52.89;101502.53;5120681;27;47123;-67
2022/05/17 04:59:42;;;;;;;;;6.50;6.50;;;;;21.38;52.15;101446.94;5122481;27;45323;-67
2022/05/17 05:02:08;;;;;;;;;8.25;7.25;;;;;21.64;52.33;101490.53;5121738;27;45558;-67
2022/05/17 05:04:34;;;;;;;;;6.00;6.00;;;;;21.61;52.57;101493.47;5137512;27;48255;-67
2022/05/17 05:07:00;;;;;;;;;6.25;6.25;;;;;21.46;52.46;101469.03;5120475;27;45338;-67
2022/05/17 05:09:26;;;;;;;;;6.50;6.50;;;;;21.73;52.65;101511.66;5121028;27;45583;-67
2022/05/17 05:15:10;;;;;;;;;;;;;;;;;;;;;
2022/05/17 05:17:44;;;;;;;;;9.25;8.00;;;;;21.31;53.20;101455.63;5118645;27;71696;-75
2022/05/17 05:20:19;;;;;;;;;7.25;6.00;;;;;21.23;52.69;101447.97;5109273;27;45447;-74
2022/05/17 05:22:48;;;;;;;;;8.75;7.75;;;;;21.65;52.89;101535.75;5117757;27;45486;-77
2022/05/17 05:25:45;;;;;;;;;;;;;;;;;;;;;
2022/05/17 05:28:04;;;;;;;;;8.00;6.75;;;;;21.52;52.63;101508.53;5119469;27;45456;-75
2022/05/17 05:33:30;;;;;;;;;;;;;;;;;;;;;
2022/05/17 05:36:52;;;;;;;;;;;;;;;;;;;;;
2022/05/17 05:40:11;;;;;;;;;;;;;;;;;;;;;
2022/05/17 06:17:40;;;;;;;;;9.50;9.00;;;;;21.49;53.88;101546.78;5090257;22;45455;-72
2022/05/17 06:20:08;;;;;;;;;7.75;7.75;;;;;21.50;54.14;101553.97;5076467;27;45595;-70
2022/05/17 06:22:37;;;;;;;;;7.50;7.50;;;;;21.46;54.13;101536.06;5092349;27;45823;-71
2022/05/17 06:25:03;;;;;;;;;8.00;8.00;;;;;21.48;53.84;101544.16;5078881;27;46608;-71
2022/05/17 06:27:46;;;;;;;;;10.00;8.75;;;;;21.58;53.51;101562.44;5073923;27;45368;-72
2022/05/17 06:30:11;;;;;;;;;9.00;9.00;;;;;21.42;53.04;101524.53;5075903;27;45724;-72
2022/05/17 06:32:37;;;;;;;;;7.50;7.50;;;;;21.57;53.41;101546.28;5075290;27;45271;-70
2022/05/17 06:35:03;;;;;;;;;9.75;8.50;;;;;21.63;53.34;101549.47;5078675;27;45410;-70
2022/05/17 06:37:29;;;;;;;;;7.00;7.00;;;;;21.53;53.28;101531.13;5077983;28;45691;-70
2022/05/17 06:39:55;;;;;;;;;5.50;5.00;;;;;21.57;53.09;101532.69;5078163;27;45386;-69
2022/05/17 06:42:20;;;;;;;;;8.25;8.25;;;;;21.70;52.78;101549.91;5078458;27;45436;-72
2022/05/17 06:44:46;;;;;;;;;8.25;7.50;;;;;21.58;53.40;101523.53;5077029;27;47094;-72
2022/05/17 06:47:11;;;;;;;;;7.75;7.75;;;;;21.67;52.58;101543.78;5092250;27;45632;-70
2022/05/17 06:49:39;;;;;;;;;8.75;8.25;;;;;21.60;52.93;101516.16;5092579;27;46130;-70
2022/05/17 06:52:07;;;;;;;;;5.75;5.75;;;;;21.50;52.28;101502.34;5081320;27;45544;-69
2022/05/17 06:54:32;;;;;;;;;9.25;7.50;;;;;21.54;52.43;101505.72;5081756;27;46259;-70
2022/05/17 06:57:06;;;;;;;;;10.25;8.00;;;;;21.53;52.58;101514.84;5079353;27;45231;-69
2022/05/17 06:59:33;;;;;;;;;6.00;5.00;;;;;21.73;52.14;101546.97;5076038;27;45724;-72
2022/05/17 07:05:32;;;;;;;;;8.75;8.00;;;;;21.61;52.75;101517.91;5000326;28;45583;-71
2022/05/17 07:36:41;;;;;;;;;8.25;6.50;;;;;22.12;50.56;101509.94;4830124;29;45333;-72
2022/05/17 07:39:33;;;;;;;;;7.00;7.00;;;;;22.45;49.88;101552.09;4884219;28;45887;-72
2022/05/17 07:42:03;;;;;;;;;9.50;7.25;;;;;22.40;49.35;101532.50;4978086;28;45715;-68
2022/05/17 07:44:30;;;;;;;;;8.50;7.00;;;;;22.46;48.91;101532.06;5018300;28;46466;-67
2022/05/17 07:46:56;;;;;;;;;10.00;8.00;;;;;22.54;49.57;101537.84;5046608;27;45739;-68
2022/05/17 07:49:21;;;;;;;;;631.33;444.00;;;;;22.64;48.68;101545.38;5076081;27;45433;-68
2022/05/17 07:51:47;;;;;;;;;319.25;259.00;;;;;22.45;48.83;101494.09;5076591;27;45293;-68
2022/05/17 07:54:14;;;;;;;;;22.75;18.25;;;;;22.52;48.91;101493.56;5076375;27;46158;-68
2022/05/17 07:56:39;;;;;;;;;9.25;8.50;;;;;22.75;48.30;101519.13;5076909;27;45445;-68
2022/05/17 07:59:05;;;;;;;;;8.50;8.00;;;;;22.97;48.52;101541.19;5079107;27;45345;-68
2022/05/17 08:01:30;;;;;;;;;8.25;7.00;;;;;22.84;48.42;101512.16;5079705;27;45762;-73
2022/05/17 08:03:58;;;;;;;;;11.75;9.00;;;;;23.00;47.90;101524.66;5078975;27;45746;-69
2022/05/17 08:06:24;;;;;;;;;9.25;6.25;;;;;22.93;48.24;101505.16;5079717;27;45490;-67
2022/05/17 08:08:49;;;;;;;;;10.25;10.25;;;;;22.94;47.46;101501.47;5080832;27;45441;-70
2022/05/17 08:11:15;;;;;;;;;8.25;7.00;;;;;23.02;46.68;101500.91;5079862;27;45741;-69
2022/05/17 08:13:40;;;;;;;;;10.00;9.25;;;;;23.21;47.12;101514.94;5078356;27;46632;-68
2022/05/17 08:16:08;;;;;;;;;11.00;7.75;;;;;23.40;47.45;101535.38;5079364;27;45418;-69
2022/05/17 08:18:34;;;;;;;;;4.50;4.25;;;;;23.44;45.34;101529.59;5096587;27;45370;-69
2022/05/17 08:21:00;;;;;;;;;5.00;5.00;;;;;23.38;45.69;101507.38;5081057;27;45449;-69
2022/05/17 08:23:25;;;;;;;;;4.00;4.00;;;;;23.61;44.73;101535.63;5080817;27;45444;-69
2022/05/17 08:28:35;;;;;;;;;5.50;5.50;;;;;23.74;44.17;101527.38;5079092;27;46749;-67
2022/05/17 08:31:02;;;;;;;;;5.00;4.00;;;;;23.82;42.66;101534.06;5079162;27;45444;-67
2022/05/17 08:33:29;;;;;;;;;4.25;4.25;;;;;23.84;42.50;101525.75;5067168;27;45409;-67
2022/05/17 08:36:00;;;;;;;;;5.25;5.25;;;;;23.92;43.42;101528.75;5073630;27;45748;-67
2022/05/17 08:38:30;;;;;;;;;5.75;5.25;;;;;24.00;43.43;101541.81;5070986;27;45861;-68
2022/05/17 08:41:01;;;;;;;;;6.25;5.25;;;;;24.05;42.67;101540.44;5070882;27;45546;-69
2022/05/17 08:43:49;;;;;;;;;4.00;4.00;;;;;24.10;42.49;101531.06;5074599;27;47166;-68
2022/05/17 08:46:52;;;;;;;;;7.50;5.75;;;;;24.19;41.80;101531.22;5069872;27;45380;-66
2022/05/17 08:49:23;;;;;;;;;3.25;3.25;;;;;24.08;41.11;101500.31;5075975;27;45400;-67
2022/05/17 08:51:55;;;;;;;;;4.25;3.25;;;;;24.31;40.34;101529.38;5074269;27;45719;-68
2022/05/17 08:54:28;;;;;;;;;4.25;3.75;;;;;24.19;40.24;101505.78;5078342;27;46244;-68
2022/05/17 08:57:18;;;;;;;;;4.00;3.00;;;;;24.33;38.68;101519.22;5082775;27;45351;-67
2022/05/17 08:59:50;;;;;;;;;0.25;0.25;;;;;24.23;37.61;101499.97;5080876;27;45378;-66
2022/05/17 09:02:31;;;;;;;;;2.75;2.75;;;;;24.45;37.45;101532.91;5072452;27;45494;-67
2022/05/17 09:05:33;;;;;;;;;3.00;3.00;;;;;24.48;37.55;101527.19;5072774;27;47133;-67
2022/05/17 09:08:07;;;;;;;;;2.00;2.00;;;;;24.51;37.34;101530.56;5077578;27;45354;-70
2022/05/17 09:10:50;;;;;;;;;2.50;2.00;;;;;24.54;38.22;101529.44;5085373;27;45407;-66
2022/05/17 09:13:27;;;;;;;;;0.00;0.00;;;;;24.48;37.88;101525.34;5077950;27;45388;-68
2022/05/17 09:15:59;;;;;;;;;2.50;1.75;;;;;24.54;37.01;101523.97;5079389;27;45595;-69
2022/05/17 09:18:28;;;;;;;;;1.00;1.00;;;;;24.60;36.74;101523.53;5066102;27;45544;-69
2022/05/17 09:20:56;;;;;;;;;1.00;1.00;;;;;24.41;37.03;101497.66;5087883;27;45341;-69
2022/05/17 09:23:22;;;;;;;;;1.00;1.00;;;;;24.44;37.12;101504.75;5079791;27;45562;-68
2022/05/17 09:25:47;;;;;;;;;1.00;1.00;;;;;24.61;37.49;101519.81;5081046;27;46313;-68
2022/05/17 09:28:18;;;;;;;;;1.00;1.00;;;;;24.57;36.73;101502.81;5078951;28;45341;-68
2022/05/17 09:30:45;;;;;;;;;0.00;0.00;;;;;24.69;37.80;101522.81;5077773;27;45478;-68
2022/05/17 09:33:20;;;;;;;;;2.25;0.75;;;;;24.67;36.98;101507.53;5061177;27;45592;-69
2022/05/17 09:35:57;;;;;;;;;2.00;2.00;;;;;24.69;36.34;101503.69;5064775;28;47272;-68
2022/05/17 09:38:27;;;;;;;;;3.50;1.25;;;;;24.75;36.67;101510.50;5079063;27;45361;-68
2022/05/17 09:40:54;;;;;;;;;2.75;2.75;;;;;24.51;36.81;101464.19;5082493;27;45730;-68
2022/05/17 09:43:35;;;;;;;;;2.00;2.00;;;;;24.82;36.68;101505.44;5094169;27;45536;-69
2022/05/17 09:46:17;;;;;;;;;3.75;2.50;;;;;24.83;37.14;101499.84;5078224;28;47387;-68
2022/05/17 09:55:25;;;;;;;;;1.00;1.00;;;;;24.95;36.13;101496.09;5079306;27;45415;-68
2022/05/17 09:57:54;;;;;;;;;1.00;1.00;;;;;25.06;35.46;101497.09;5070802;27;46364;-68
2022/05/17 10:00:26;;;;;;;;;1.00;1.00;;;;;25.15;36.07;101508.13;5076160;27;45888;-69
2022/05/17 10:03:26;;;;;;;;;2.00;1.75;;;;;25.16;35.16;101492.63;5076748;28;45803;-69
2022/05/17 10:06:26;;;;;;;;;0.00;0.00;;;;;25.27;34.50;101499.94;5076512;27;45633;-69
2022/05/17 10:09:02;;;;;;;;;2.00;2.00;;;;;25.02;34.61;101452.78;5089348;27;47293;-69
2022/05/17 10:11:46;;;;;;;;;1.00;1.00;;;;;25.24;34.82;101492.88;5078974;27;45391;-69
2022/05/17 10:14:33;;;;;;;;;0.50;0.50;;;;;25.15;34.13;101467.16;5066530;27;45437;-69
2022/05/17 10:17:15;;;;;;;;;3.25;1.00;;;;;25.32;34.49;101484.91;5074868;27;45350;-69
2022/05/17 10:19:48;;;;;;;;;1.00;1.00;;;;;25.39;34.65;101498.06;5095302;27;46984;-68
2022/05/17 10:22:36;;;;;;;;;0.75;0.75;;;;;25.41;33.87;101493.34;5094487;27;45422;-69
2022/05/17 10:25:08;;;;;;;;;1.00;0.25;;;;;25.40;34.66;101481.53;5081474;27;45307;-69
2022/05/17 10:28:00;;;;;;;;;;;;;;;;;;;;;
2022/05/17 10:31:00;;;;;;;;;;;;;;;;;;;;;
2022/05/17 10:34:08;;;;;;;;;;;;;;;;;;;;;
2022/05/17 10:37:00;;;;;;;;;0.50;0.50;;;;;25.49;34.57;101478.06;5078759;27;68950;-70
2022/05/17 10:39:35;;;;;;;;;4.00;2.00;;;;;25.55;34.93;101470.31;5062425;27;45371;-67
2022/05/17 10:42:13;;;;;;;;;;;;;;;;;;;;;
2022/05/17 10:44:54;;;;;;;;;;;;;;;;;;;;;
2022/05/17 10:50:31;;;;;;;;;2.25;2.00;;;;;25.76;36.00;101452.09;5084131;27;46020;-69
2022/05/17 10:53:04;;;;;;;;;3.00;1.25;;;;;25.88;34.98;101455.66;5081229;27;47017;-70
2022/05/17 10:55:54;;;;;;;;;;;;;;;;;;;;;
2022/05/17 10:58:32;;;;;;;;;0.75;0.25;;;;;25.99;35.10;101449.25;5082397;27;68826;-69
2022/05/17 11:01:26;;;;;;;;;;;;;;;;;;;;;
2022/05/17 11:04:29;;;;;;;;;3.00;3.00;;;;;26.13;35.76;101443.47;5081172;27;75267;-69
2022/05/17 11:07:18;;;;;;;;;;;;;;;;;;;;;
2022/05/17 11:10:24;;;;;;;;;;;;;;;;;;;;;
2022/05/17 11:13:06;;;;;;;;;3.00;3.00;;;;;26.21;36.15;101424.50;5069402;27;72845;-70
2022/05/17 11:15:47;;;;;;;;;;;;;;;;;;;;;
2022/05/17 11:18:32;;;;;;;;;3.75;2.75;;;;;26.28;35.78;101416.63;5079871;27;71447;-70
2022/05/17 11:21:19;;;;;;;;;;;;;;;;;;;;;
2022/05/17 11:24:13;;;;;;;;;3.00;2.00;;;;;26.15;35.45;101386.75;5078070;28;72914;-70
2022/05/17 11:26:53;;;;;;;;;2.00;2.00;;;;;26.38;35.70;101420.28;5070090;27;45385;-70
2022/05/17 11:29:48;;;;;;;;;2.50;2.50;;;;;26.32;36.13;101398.06;5078837;27;45252;-70
2022/05/17 11:32:30;;;;;;;;;5.00;4.00;;;;;26.41;36.13;101414.53;5077334;27;45333;-70
2022/05/17 11:35:01;;;;;;;;;3.50;2.25;;;;;26.37;36.48;101395.78;5075534;27;45314;-69
2022/05/17 11:37:33;;;;;;;;;2.50;1.50;;;;;26.48;36.46;101411.22;5081516;27;45432;-70
2022/05/17 11:40:09;;;;;;;;;3.00;3.00;;;;;26.34;36.19;101379.63;5077407;27;45496;-68
2022/05/17 11:45:56;;;;;;;;;3.00;2.00;;;;;26.38;36.11;101360.06;5073556;28;45870;-69
2022/05/17 11:48:24;;;;;;;;;1.00;1.00;;;;;26.58;36.38;101382.00;5082101;27;45663;-70
2022/05/17 11:51:01;;;;;;;;;3.00;3.00;;;;;26.63;36.46;101388.00;5074202;28;46005;-70
2022/05/17 11:53:27;;;;;;;;;3.00;2.25;;;;;26.66;35.69;101390.44;5076258;27;45797;-69
2022/05/17 11:56:24;;;;;;;;;4.50;4.00;;;;;26.70;35.76;101399.25;5077879;27;45501;-69
2022/05/17 11:59:16;;;;;;;;;2.00;2.00;;;;;26.44;35.37;101336.72;5075744;27;47359;-69
2022/05/17 12:02:02;;;;;;;;;2.25;2.25;;;;;26.70;35.75;101375.47;5084296;27;45941;-68
2022/05/17 12:04:37;;;;;;;;;3.00;3.00;;;;;26.80;35.66;101386.47;5093566;27;45568;-69
2022/05/17 12:07:27;;;;;;;;;2.25;2.25;;;;;26.70;35.43;101369.16;5076773;27;45551;-70
2022/05/17 12:10:08;;;;;;;;;2.75;2.75;;;;;26.54;35.43;101331.28;5068876;28;46155;-69
2022/05/17 12:12:56;;;;;;;;;5.75;4.00;;;;;26.76;35.91;101369.44;5091310;27;45589;-69
2022/05/17 12:15:34;;;;;;;;;3.00;3.00;;;;;26.83;35.80;101369.75;5066631;27;45364;-70
2022/05/17 12:18:13;;;;;;;;;3.00;3.00;;;;;26.84;36.48;101366.00;5085286;27;45484;-69
2022/05/17 12:21:13;;;;;;;;;3.25;3.25;;;;;26.88;36.72;101367.47;5077939;27;46590;-69
2022/05/17 12:23:48;;;;;;;;;5.00;3.00;;;;;26.93;36.20;101367.91;5036879;28;45573;-69
2022/05/17 12:26:23;;;;;;;;;2.75;2.75;;;;;27.01;36.49;101358.09;5089347;27;45313;-69
2022/05/17 12:28:53;;;;;;;;;5.25;4.00;;;;;26.80;36.41;101315.25;5080978;27;45517;-69
2022/05/17 12:31:34;;;;;;;;;3.50;3.25;;;;;26.87;36.95;101324.63;5077868;27;48085;-69
2022/05/17 12:34:05;;;;;;;;;4.00;3.50;;;;;26.99;36.82;101328.09;5072574;27;45581;-70
2022/05/17 12:36:31;;;;;;;;;4.00;3.50;;;;;27.00;36.54;101318.88;5080965;27;45428;-70
2022/05/17 12:44:43;;;;;;;;;6.00;4.00;;;;;27.18;36.33;101346.41;5069430;28;45493;-69
2022/05/17 12:47:22;;;;;;;;;3.25;3.25;;;;;26.97;37.07;101313.69;5078749;27;45548;-69
2022/05/17 12:49:52;;;;;;;;;3.50;3.50;;;;;27.21;37.43;101343.38;5078621;27;45425;-70
2022/05/17 12:52:39;;;;;;;;;4.00;4.00;;;;;27.04;37.39;101317.56;5079643;27;45512;-69
2022/05/17 12:55:11;;;;;;;;;3.25;3.25;;;;;27.02;37.61;101307.78;5073823;27;45478;-68
2022/05/17 12:57:39;;;;;;;;;4.75;3.75;;;;;27.13;37.44;101324.06;5060966;27;45572;-70
2022/05/17 13:00:13;;;;;;;;;3.50;2.00;;;;;27.20;37.67;101329.81;5075922;27;45730;-69
2022/05/17 13:02:42;;;;;;;;;3.50;3.50;;;;;27.22;37.69;101336.06;5068786;27;45454;-69
2022/05/17 13:05:42;;;;;;;;;7.00;5.50;;;;;27.20;38.06;101318.88;5080089;27;45667;-70
2022/05/17 13:08:18;;;;;;;;;4.75;3.25;;;;;27.06;37.87;101295.50;5063500;27;45633;-70
2022/05/17 13:10:59;;;;;;;;;4.75;3.75;;;;;27.15;37.95;101295.53;5072860;27;45854;-70
2022/05/17 13:13:25;;;;;;;;;6.00;4.50;;;;;27.09;37.82;101278.78;5080438;27;45503;-71
2022/05/17 13:15:54;;;;;;;;;3.50;3.00;;;;;27.22;38.02;101297.69;5075947;27;45520;-71
2022/05/17 13:18:27;;;;;;;;;6.00;4.25;;;;;27.37;38.59;101311.84;5092909;27;45771;-71
2022/05/17 13:20:52;;;;;;;;;3.25;3.25;;;;;27.27;38.49;101289.91;5074626;27;45473;-70
2022/05/17 13:23:22;;;;;;;;;5.25;4.00;;;;;27.41;37.81;101310.53;5075882;27;46496;-71
2022/05/17 13:25:49;;;;;;;;;2.25;2.25;;;;;27.14;37.93;101274.59;5075352;27;45476;-70
2022/05/17 13:28:29;;;;;;;;;2.25;2.25;;;;;27.24;37.86;101285.56;5075396;27;45477;-71
2022/05/17 13:31:08;;;;;;;;;3.00;3.00;;;;;27.25;38.42;101279.06;5075755;27;45897;-70
2022/05/17 13:33:37;;;;;;;;;5.00;4.00;;;;;27.48;38.17;101311.66;5083750;27;46774;-70
2022/05/17 13:36:17;;;;;;;;;4.75;4.00;;;;;27.32;38.72;101271.16;5075880;27;45779;-70
2022/05/17 13:38:43;;;;;;;;;4.00;4.00;;;;;27.56;38.41;101313.69;5072506;27;45545;-70
2022/05/17 13:41:31;;;;;;;;;4.75;4.75;;;;;27.57;38.01;101313.56;5073948;27;45744;-70